This is the latest recevied weather packets stored in our database for station/object W4MJZ-1. If no packets are shown the sender has not sent any weather packets the latest 1 day(s).
| Time | Temp. | Humidity | Pressure | Rain* | Wind** | Luminosity | Snow |
|---|---|---|---|---|---|---|---|
| 1778057906 | 10.56° C | 69% | 1022.2 hPa | 0 mm | - | - | - |
| 1778057649 | 10.56° C | 69% | 1022.2 hPa | 0 mm | - | - | - |
| 1778057539 | 10.56° C | 69% | 1022.2 hPa | 0 mm | - | - | - |
| 1778057239 | 10° C | 71% | 1021.8 hPa | 0 mm | - | - | - |
| 1778056639 | 10° C | 72% | 1021.8 hPa | 0 mm | - | - | - |
| 1778056475 | 10° C | 72% | 1022.2 hPa | 0 mm | - | - | - |
| 1778056339 | 10° C | 72% | 1022.2 hPa | 0 mm | - | - | - |
| 1778056028 | 10.56° C | 69% | 1022.2 hPa | 0 mm | - | - | - |
| 1778055380 | 11.11° C | 66% | 1022.2 hPa | 0 mm | - | - | - |
| 1778055087 | 11.11° C | 65% | 1022.6 hPa | 0 mm | - | - | - |
| 1778054840 | 11.11° C | 65% | 1022.6 hPa | 0 mm | - | - | - |
| 1778054802 | 11.67° C | 65% | 1022.6 hPa | 0 mm | - | - | - |
| 1778054239 | 11.67° C | 64% | 1022.2 hPa | 0 mm | - | - | - |
| 1778053939 | 11.67° C | 64% | 1022.6 hPa | 0 mm | - | - | - |
| 1778053640 | 11.67° C | 64% | 1022.2 hPa | 0 mm | - | - | - |
| 1778053531 | 12.22° C | 61% | 1022.2 hPa | 0 mm | - | - | - |
| 1778053339 | 12.22° C | 61% | 1022.2 hPa | 0 mm | - | - | - |
| 1778053258 | 12.78° C | 60% | 1022.2 hPa | 0 mm | - | - | - |
| 1778052912 | 12.78° C | 59% | 1022.2 hPa | 0 mm | - | - | - |
| 1778052739 | 12.78° C | 59% | 1022.2 hPa | 0 mm | - | - | - |
| 1778052548 | 12.78° C | 56% | 1022.2 hPa | 0 mm | - | - | - |
| 1778052332 | 13.33° C | 54% | 1022.2 hPa | 0 mm | - | - | - |
| 1778052176 | 13.33° C | 54% | 1022.2 hPa | 0 mm | - | - | - |
| 1778051956 | 13.33° C | 55% | 1022.2 hPa | 0 mm | - | - | - |
| 1778051708 | 12.78° C | 59% | 1022.2 hPa | 0 mm | - | - | - |
* Rain latest hour (hover to see other rain measurements)
** Current wind speed in m/s (hover to see current wind gust speed)